Weather observations for the past three days for
Abilene, Dyess Air Force Base
Metric (Imperial)
Date Time (cdt) Wind (kph) Vis. (km) Weather Sky Cond. Temperature (ºC) Relative Humidity Wind Chill (°C) Heat Index (°C) Pressure Precipitation (cm)
Air Dwpt 6 hour altimeter (cm) sea level (mb) 1 hr 3 hr 6 hr
Max. Min.
04 20:55 S 26 16.09 Fair CLR 27.7 14 43% 28 75.31 1001.8
04 19:55 S 26 16.09 Fair CLR 29.4 13.6 38% 29 75.29 1001.6
04 18:55 S 35 16.09 Fair and Breezy CLR 30.8 13.5 32 26.9 35% 30 75.29 1001.4
04 17:55 SW 33 G 44 16.09 A Few Clouds and Breezy FEW210 31.3 14 35% 31 75.36 1002.4
04 16:55 S 31 16.09 Fair CLR 30.7 14.3 37% 30 75.41 1003.1
04 15:53 SW 24 16.09 Partly Cloudy FEW160 SCT190 0 0 0% 75.51 0.0
04 14:55 S 26 16.09 Partly Cloudy FEW150 FEW180 SCT210 28.7 14.5 42% 28 75.57 1005.3
04 13:55 S 22 16.09 Partly Cloudy FEW150 FEW180 SCT200 28.1 14.3 43% 28 75.67 1006.7
04 12:55 S 30 16.09 A Few Clouds FEW180 26.8 14.2 26.9 16.7 46% 27 75.72 1007.5
04 11:55 SW 30 16.09 Fair CLR 24.1 13.6 52% 25 75.77 1008.4
04 10:55 S 26 16.09 Fair CLR 22.4 13.2 56% 75.79 1008.9
04 09:55 S 31 G 41 16.09 Fair CLR 20.7 12.6 60% 75.82 1009.3
04 08:55 S 41 G 59 16.09 Fair and Breezy CLR 19 11.8 63% 75.77 1008.5
04 07:55 S 33 G 44 16.09 Fair and Breezy CLR 17.1 10.5 65% 75.77 1008.5
04 06:55 S 22 16.09 Fair CLR 16.6 9.5 18.5 16.1 63% 75.74 1008.0
04 05:55 S 17 16.09 Fair CLR 16.6 8.8 60% 75.77 1008.4
04 04:55 S 15 16.09 Fair CLR 17.3 8.4 56% 75.82 1009.0
04 03:55 S 15 16.09 Fair CLR 16.8 8.7 59% 75.84 1009.4
04 02:55 S 17 16.09 Fair CLR 17.4 8.5 56% 75.92 1010.4
04 01:55 S 17 16.09 Fair CLR 17.8 8.6 55% 75.97 1011.1
04 00:55 S 19 16.09 Fair CLR 17.7 8.5 24.1 15.5 55% 76.02 1011.8
03 23:55 S 19 16.09 Fair CLR 17.5 8.4 55% 76.05 1012.1
03 22:55 S 13 16.09 Fair CLR 17.4 8.3 55% 76.1 1013.0
03 21:55 S 11 16.09 Fair CLR 17.9 7.6 51% 76.1 1013.1
03 20:55 S 15 16.09 Fair CLR 20.5 7.1 42% 76.07 1012.6
03 19:55 S 19 16.09 Fair CLR 22.5 6.7 36% 76.07 1012.7
03 18:55 S 22 16.09 Fair CLR 24.1 6.4 26.1 24.1 32% 25 76.1 1013.2
03 17:55 S 24 16.09 Fair CLR 24.8 6 30% 25 76.12 1013.6
03 16:55 S 22 16.09 Fair CLR 25.8 6.4 29% 26 76.17 1014.1
03 15:55 S 28 G 41 16.09 Fair CLR 25.7 5.8 28% 26 76.25 1015.1
03 14:55 S 26 16.09 Fair CLR 25.4 6.1 29% 26 76.35 1016.6
03 13:55 SW 24 G 37 16.09 A Few Clouds FEW190 24.5 5.3 29% 25 76.43 1017.5
03 12:55 SW 22 G 41 16.09 A Few Clouds FEW180 24.2 6.9 24.2 12 33% 25 76.5 1018.4
03 11:55 S 20 16.09 Fair CLR 23.2 6.9 35% 76.58 1019.6
03 10:55 S 26 16.09 Fair CLR 22.2 7.9 40% 76.61 1020.1
03 09:55 SW 22 16.09 Fair CLR 20.5 8.2 45% 76.63 1020.4
03 08:55 SW 24 16.09 Fair CLR 18.8 8.2 50% 76.61 1020.1
03 07:55 SW 6 16.09 Fair CLR 14.1 7.8 66% 76.58 1019.9
03 06:55 S 15 16.09 Fair CLR 11.9 6.6 15.3 10.2 70% 76.56 1019.5
03 05:55 S 13 16.09 Fair CLR 10.5 6.8 78% 76.5 1018.8
03 04:55 S 9 16.09 Fair CLR 12.9 6.7 66% 76.53 0.0
03 03:55 SW 17 16.09 Fair CLR 11.6 7.3 75% 76.48 1018.5
03 02:55 SW 13 16.09 A Few Clouds FEW180 11.3 8.2 81% 76.5 1019.0
03 01:55 S 6 16.09 A Few Clouds FEW160 13.9 8.5 70% 76.56 1019.4
03 00:55 S 9 16.09 Mostly Cloudy BKN140 14.9 9 22.3 12.2 68% 76.56 1019.4
02 23:55 S 9 16.09 Overcast OVC150 14.6 9 69% 76.56 1019.5
02 22:55 SW 11 16.09 Fair CLR 13.3 9.2 76% 76.53 1019.3
02 21:55 SW 11 16.09 Fair CLR 14.6 9.4 71% 76.5 1019.0
02 20:55 SW 11 16.09 Fair CLR 16.8 8.7 59% 76.48 1018.6
02 19:55 S 13 16.09 Fair CLR 20.6 7.6 43% 76.43 1017.9
02 18:55 S 11 16.09 Fair CLR 22.4 5.8 23.1 20.3 34% 76.43 1017.9
02 17:55 S 17 16.09 Partly Cloudy SCT095 22.8 5.2 32% 76.45 1018.3
02 15:55 Calm 16.09 Overcast OVC090 21.6 5.5 35% 76.56 1019.6
02 14:55 Calm 16.09 Overcast OVC070 21.6 4.6 33% 76.58 1020.0
02 13:55 NE 9 16.09 Fair CLR 21.6 5.5 35% 76.63 1020.5
02 12:55 E 7 16.09 Fair CLR 20.6 6.2 21 8.1 39% 76.68 1021.3
02 11:55 NW 11 16.09 Fair CLR 19.8 7.2 44% 76.73 1022.0
02 10:55 NW 7 16.09 Fair CLR 19.4 7.8 47% 76.73 1022.0
02 09:55 NW 11 16.09 Fair CLR 16.9 7.8 55% 76.73 1022.2
02 08:55 W 9 16.09 Fair CLR 15.2 8 62% 76.71 1021.8
02 07:55 S 7 16.09 Fair CLR 11.9 7.8 76% 76.66 1021.3
02 06:55 SW 6 16.09 Fair CLR 9.7 7.1 12.1 7.7 84% 76.58 1020.4
02 05:55 Calm 16.09 A Few Clouds FEW090 8.2 6.5 89% 76.56 1020.0
02 04:55 W 6 16.09 Fair CLR 10.2 7.4 83% 76.5 1019.3
02 03:55 Calm 16.09 Fair CLR 10.5 8.1 85% 76.48 1019.0
02 02:55 SW 6 16.09 Fair CLR 10 8.6 91% 76.5 1019.5
02 01:55 Calm 16.09 A Few Clouds FEW150 11.4 8.6 83% 76.53 1019.8
02 00:55 SW 7 16.09 Overcast OVC160 11.4 9.5 16.3 11.2 88% 76.5 1019.5
01 23:55 SW 7 16.09 Overcast OVC120 12.7 9.1 79% 76.48 1019.0
01 22:55 SW 7 16.09 Overcast OVC110 13 10.5 85% 76.45 1018.7
01 21:55 Calm 16.09 Overcast OVC120 13.7 9.1 74% 76.43 1018.2
Date Time (cdt) Wind (kph) Vis. (km) Weather Sky Cond. Air Dwpt Max. Min. Relative Humidity Wind Chill (°C) Heat Index (°C) altimeter (cm) sea level (mb) 1 hr 3 hr 6 hr
6 hour
Temperature (ºC) Pressure Precipitation (cm)